Time;durP1;ratioP1;P1;durP2;ratioP2;P2;SDS_P1;SDS_P2;PMS_P1;PMS_P2;Temp;Humidity;BMP_temperature;BMP_pressure;BME280_temperature;BME280_humidity;BME280_pressure;Samples;Min_cycle;Max_cycle;Signal;HPM_P1;HPM_P2
2022/11/13 00:00:35;;;;;;;31.00;22.38;;;179.50;2252.80;;;;;;5154562;27;20065;-67
2022/11/13 00:03:01;;;;;;;45.80;26.48;;;179.20;2252.80;;;;;;5154845;27;20022;-65
2022/11/13 00:05:27;;;;;;;227.65;120.32;;;154.50;2252.80;;;;;;5154829;27;20029;-64
2022/11/13 00:07:53;;;;;;;38.85;22.02;;;154.40;2252.80;;;;;;5154865;27;20071;-70
2022/11/13 00:10:18;;;;;;;111.78;56.63;;;154.10;2252.80;;;;;;5154860;27;20063;-71
2022/11/13 00:12:44;;;;;;;265.25;138.55;;;154.10;2252.80;;;;;;5153548;27;20035;-68
2022/11/13 00:15:10;;;;;;;89.70;45.28;;;154.20;2252.80;;;;;;5154581;27;20042;-64
2022/11/13 00:17:35;;;;;;;37.60;23.05;;;154.40;2252.80;;;;;;5154526;27;20022;-65
2022/11/13 00:20:01;;;;;;;30.52;18.13;;;154.50;2252.80;;;;;;5154527;27;20135;-64
2022/11/13 00:22:27;;;;;;;97.63;56.03;;;154.30;2252.80;;;;;;5154227;27;20520;-66
2022/11/13 00:24:53;;;;;;;64.30;40.90;;;154.40;2252.80;;;;;;5154554;27;20014;-66
2022/11/13 00:27:19;;;;;;;123.03;67.47;;;154.40;2252.80;;;;;;5154294;27;20027;-66
2022/11/13 00:29:44;;;;;;;158.43;86.93;;;154.50;2252.80;;;;;;5154669;27;20118;-65
2022/11/13 00:32:10;;;;;;;35.42;20.25;;;154.40;2252.80;;;;;;5154263;27;20422;-65
2022/11/13 00:34:36;;;;;;;28.17;18.95;;;154.40;2252.80;;;;;;5154171;27;20099;-65
2022/11/13 00:37:01;;;;;;;46.35;26.92;;;154.10;2252.80;;;;;;5154158;27;20406;-66
2022/11/13 00:39:27;;;;;;;74.32;42.35;;;153.90;2252.80;;;;;;5154053;27;20113;-65
2022/11/13 00:41:53;;;;;;;105.35;61.70;;;153.80;2252.80;;;;;;5153773;27;20046;-66
2022/11/13 00:44:18;;;;;;;31.05;18.67;;;153.90;2252.80;;;;;;5154065;27;20021;-66
2022/11/13 00:46:44;;;;;;;55.50;34.92;;;153.80;2252.80;;;;;;5153777;27;20055;-63
2022/11/13 00:49:10;;;;;;;25.02;15.43;;;153.90;2252.80;;;;;;5153907;27;20019;-64
2022/11/13 00:51:36;;;;;;;22.20;14.80;;;153.70;2252.80;;;;;;5153714;27;20019;-66
2022/11/13 00:54:01;;;;;;;24.33;15.63;;;153.70;2252.80;;;;;;5153905;27;20049;-65
2022/11/13 00:56:27;;;;;;;30.83;19.60;;;153.80;2252.80;;;;;;5154041;27;20019;-66
2022/11/13 00:58:53;;;;;;;77.07;44.10;;;153.90;2252.80;;;;;;5153349;27;20029;-66
2022/11/13 01:01:21;;;;;;;45.03;27.88;;;153.90;2252.80;;;;;;5153693;27;20027;-66
2022/11/13 01:03:47;;;;;;;55.92;35.05;;;154.00;2252.80;;;;;;5153437;27;20021;-65
2022/11/13 01:06:22;;;;;;;131.10;72.60;;;154.00;2252.80;;;;;;5153441;27;20132;-65
2022/11/13 01:08:48;;;;;;;100.28;53.78;;;154.10;2252.80;;;;;;5153363;27;20419;-66
2022/11/13 01:11:20;;;;;;;44.97;27.50;;;154.10;2252.80;;;;;;5153334;27;20405;-66
2022/11/13 01:13:48;;;;;;;31.63;19.48;;;154.10;2252.80;;;;;;5153077;27;20027;-66
2022/11/13 01:16:15;;;;;;;27.30;19.35;;;154.10;2252.80;;;;;;5153200;27;20027;-66
2022/11/13 01:18:42;;;;;;;31.50;20.50;;;154.10;2252.80;;;;;;5153298;27;20019;-66
2022/11/13 01:21:20;;;;;;;30.17;21.05;;;154.10;2252.80;;;;;;5153167;27;20034;-66
2022/11/13 01:23:46;;;;;;;42.95;28.55;;;154.00;2252.80;;;;;;5152999;27;20023;-66
2022/11/13 01:26:18;;;;;;;29.00;20.27;;;154.00;2252.80;;;;;;5153170;27;20540;-65
2022/11/13 01:28:45;;;;;;;35.07;25.83;;;154.10;2252.80;;;;;;5152920;27;20049;-66
2022/11/13 01:31:16;;;;;;;20.25;14.32;;;154.10;2252.80;;;;;;5153248;27;20243;-66
2022/11/13 01:33:43;;;;;;;22.27;13.20;;;153.60;2252.80;;;;;;5134299;27;20409;-65
2022/11/13 01:36:15;;;;;;;24.90;14.20;;;128.60;2252.80;;;;;;5152936;27;20051;-65
2022/11/13 01:38:41;;;;;;;19.80;13.75;;;128.30;2252.80;;;;;;5152730;27;20023;-64
2022/11/13 01:41:18;;;;;;;24.27;14.68;;;128.20;2252.80;;;;;;5152756;27;20031;-64
2022/11/13 01:43:44;;;;;;;22.95;15.98;;;128.00;2252.80;;;;;;5152515;27;20042;-67
2022/11/13 01:46:21;;;;;;;19.73;13.85;;;128.00;2252.80;;;;;;5152813;27;20074;-66
2022/11/13 01:49:02;;;;;;;19.20;11.07;;;128.00;2252.80;;;;;;5152740;27;20022;-63
2022/11/13 01:51:54;;;;;;;17.35;11.90;;;128.00;2252.80;;;;;;5152687;27;20023;-66
2022/11/13 01:54:25;;;;;;;16.85;11.88;;;103.30;2227.20;;;;;;5152724;27;20460;-66
2022/11/13 01:56:51;;;;;;;21.85;11.93;;;128.00;2252.80;;;;;;5152745;27;20019;-66
2022/11/13 01:59:24;;;;;;;20.92;13.02;;;128.10;2252.80;;;;;;5152311;27;20548;-66
2022/11/13 02:01:50;;;;;;;26.52;17.70;;;128.00;2252.80;;;;;;5152683;27;20403;-65
2022/11/13 02:04:16;;;;;;;41.00;26.25;;;128.20;2252.80;;;;;;5152238;27;20027;-66
2022/11/13 02:06:47;;;;;;;30.60;20.77;;;128.50;2252.80;;;;;;5152595;27;20023;-66
2022/11/13 02:09:16;;;;;;;28.63;18.25;;;128.70;2252.80;;;;;;5152119;27;20023;-67
2022/11/13 02:11:42;;;;;;;36.72;22.00;;;128.90;2252.80;;;;;;5152394;27;20085;-65
2022/11/13 02:14:08;;;;;;;62.35;42.33;;;128.70;2252.80;;;;;;5151947;27;20019;-66
2022/11/13 02:16:36;;;;;;;140.43;76.93;;;128.80;2252.80;;;;;;5152238;27;20107;-66
2022/11/13 02:19:08;;;;;;;32.97;20.83;;;128.60;2252.80;;;;;;5152251;27;20034;-65
2022/11/13 02:22:19;;;;;;;28.08;19.13;;;128.70;2252.80;;;;;;5152013;27;20129;-66
2022/11/13 02:24:46;;;;;;;27.35;17.63;;;128.80;2252.80;;;;;;5151869;27;20034;-66
2022/11/13 02:27:37;;;;;;;37.75;24.52;;;128.90;2252.80;;;;;;5152172;27;20027;-66
2022/11/13 02:30:12;;;;;;;32.33;22.13;;;153.60;2252.80;;;;;;5151767;27;20114;-65
2022/11/13 02:32:46;;;;;;;28.63;20.63;;;128.60;2252.80;;;;;;5151924;27;20026;-66
2022/11/13 02:35:16;;;;;;;35.80;25.58;;;128.60;2252.80;;;;;;5151916;27;20015;-66
2022/11/13 02:37:42;;;;;;;28.80;20.70;;;128.50;2252.80;;;;;;5151360;27;20026;-66
2022/11/13 02:40:08;;;;;;;21.25;13.63;;;128.70;2252.80;;;;;;5151533;27;20015;-66
2022/11/13 02:42:34;;;;;;;19.40;12.80;;;128.80;2252.80;;;;;;5151477;27;20046;-66
2022/11/13 02:45:00;;;;;;;17.23;12.45;;;128.90;2252.80;;;;;;5151689;27;20027;-65
2022/11/13 02:47:26;;;;;;;30.63;20.20;;;153.60;2252.80;;;;;;5151964;27;20027;-66
2022/11/13 02:49:52;;;;;;;41.47;23.80;;;128.90;2252.80;;;;;;5151892;27;20483;-65
2022/11/13 02:52:18;;;;;;;29.27;19.10;;;128.90;2252.80;;;;;;5151972;27;20019;-65
2022/11/13 02:54:44;;;;;;;33.22;16.98;;;128.90;2252.80;;;;;;5151601;27;20126;-66
2022/11/13 02:57:10;;;;;;;28.05;18.63;;;128.90;2252.80;;;;;;5132989;27;20039;-64
2022/11/13 02:59:35;;;;;;;22.85;14.27;;;128.90;2252.80;;;;;;5151481;27;20019;-65
2022/11/13 03:02:01;;;;;;;20.10;13.45;;;128.90;2252.80;;;;;;5151777;27;20057;-65
2022/11/13 03:04:27;;;;;;;16.20;11.82;;;128.70;2252.80;;;;;;5151617;27;20026;-66
2022/11/13 03:06:52;;;;;;;18.55;12.52;;;128.70;2252.80;;;;;;5151975;27;20096;-65
2022/11/13 03:09:18;;;;;;;23.13;13.40;;;128.80;2252.80;;;;;;5151571;27;20551;-66
2022/11/13 03:11:44;;;;;;;31.52;19.23;;;128.80;2252.80;;;;;;5151586;27;20380;-66
2022/11/13 03:14:09;;;;;;;20.77;13.98;;;128.80;2252.80;;;;;;5151596;27;20054;-66
2022/11/13 03:16:35;;;;;;;24.70;12.65;;;128.80;2252.80;;;;;;5151313;27;20529;-66
2022/11/13 03:19:02;;;;;;;19.27;13.55;;;128.80;2252.80;;;;;;5151803;27;20018;-66
2022/11/13 03:21:27;;;;;;;22.52;14.15;;;128.80;2252.80;;;;;;5151326;27;20038;-65
2022/11/13 03:23:53;;;;;;;20.25;16.00;;;128.80;2252.80;;;;;;5151446;27;20019;-67
2022/11/13 03:26:20;;;;;;;25.40;18.15;;;128.70;2252.80;;;;;;5151422;27;20502;-66
2022/11/13 03:28:45;;;;;;;19.80;13.82;;;128.80;2252.80;;;;;;5151134;27;20023;-66
2022/11/13 03:31:11;;;;;;;20.20;13.93;;;128.80;2252.80;;;;;;5151338;27;20023;-65
2022/11/13 03:33:37;;;;;;;22.25;15.02;;;128.80;2252.80;;;;;;5151171;27;20023;-65
2022/11/13 03:36:03;;;;;;;20.52;12.63;;;128.70;2252.80;;;;;;5151169;27;20025;-66
2022/11/13 03:38:29;;;;;;;16.25;12.25;;;128.70;2252.80;;;;;;5151297;27;20133;-65
2022/11/13 03:40:55;;;;;;;22.92;13.45;;;128.50;2252.80;;;;;;5150973;27;20508;-67
2022/11/13 03:43:21;;;;;;;21.80;14.02;;;128.50;2252.80;;;;;;5151319;27;20477;-65
2022/11/13 03:45:47;;;;;;;29.17;14.13;;;128.50;2252.80;;;;;;5151327;27;20034;-66
2022/11/13 03:48:14;;;;;;;21.38;12.52;;;128.50;2252.80;;;;;;5153614;27;20030;-66
2022/11/13 03:50:42;;;;;;;21.08;13.32;;;128.60;2252.80;;;;;;5155334;27;20023;-65
2022/11/13 03:53:08;;;;;;;21.95;13.00;;;128.60;2252.80;;;;;;5155142;27;20015;-65
2022/11/13 03:55:34;;;;;;;18.35;13.57;;;128.60;2252.80;;;;;;5155040;27;20129;-66
2022/11/13 03:57:59;;;;;;;19.88;13.02;;;128.50;2252.80;;;;;;5154984;27;20026;-65
2022/11/13 04:00:25;;;;;;;19.48;12.90;;;128.60;2252.80;;;;;;5154804;27;20027;-67
2022/11/13 04:02:51;;;;;;;20.15;12.15;;;128.40;2252.80;;;;;;5154817;27;20039;-66
2022/11/13 04:05:17;;;;;;;23.42;13.27;;;128.30;2252.80;;;;;;5154586;27;20098;-65
2022/11/13 04:07:43;;;;;;;20.23;14.30;;;128.30;2252.80;;;;;;5154560;27;20030;-66
2022/11/13 04:10:08;;;;;;;21.55;14.00;;;128.30;2252.80;;;;;;5154583;27;20018;-64
2022/11/13 04:12:34;;;;;;;25.50;15.25;;;128.40;2252.80;;;;;;5154595;27;20388;-67
2022/11/13 04:15:00;;;;;;;23.23;14.10;;;128.40;2252.80;;;;;;5154757;27;20019;-66
2022/11/13 04:17:25;;;;;;;22.15;14.40;;;128.40;2252.80;;;;;;5154241;27;20468;-66
2022/11/13 04:19:51;;;;;;;30.98;19.83;;;128.50;2252.80;;;;;;5154781;27;20082;-66
2022/11/13 04:22:17;;;;;;;28.75;19.60;;;128.60;2252.80;;;;;;5154152;27;20059;-65
2022/11/13 04:24:42;;;;;;;24.50;17.75;;;128.60;2252.80;;;;;;5154518;27;20026;-65
2022/11/13 04:27:08;;;;;;;23.33;14.45;;;128.60;2252.80;;;;;;5154570;27;20034;-66
2022/11/13 04:29:34;;;;;;;20.60;13.50;;;128.70;2252.80;;;;;;5154157;27;20030;-66
2022/11/13 04:31:59;;;;;;;17.63;12.57;;;128.60;2252.80;;;;;;5154232;27;20551;-66
2022/11/13 04:34:25;;;;;;;16.75;11.63;;;128.50;2252.80;;;;;;5153923;27;20022;-66
2022/11/13 04:36:51;;;;;;;20.00;13.13;;;128.60;2252.80;;;;;;5154293;27;20153;-66
2022/11/13 04:39:16;;;;;;;23.67;13.77;;;128.50;2252.80;;;;;;5153932;27;20031;-66
2022/11/13 04:44:31;;;;;;;20.90;12.90;;;128.40;2252.80;;;;;;5070066;28;20071;-66
2022/11/13 04:46:57;;;;;;;20.35;13.63;;;128.40;2252.80;;;;;;5069807;28;20061;-66
2022/11/13 04:49:22;;;;;;;17.42;12.35;;;128.40;2252.80;;;;;;5070134;28;20036;-65
2022/11/13 04:51:48;;;;;;;17.83;11.45;;;128.40;2252.80;;;;;;5069954;28;20021;-66
2022/11/13 04:54:14;;;;;;;18.80;11.73;;;128.40;2252.80;;;;;;5069798;28;20025;-66
2022/11/13 04:56:39;;;;;;;19.05;12.73;;;128.50;2252.80;;;;;;5069923;28;20044;-65
2022/11/13 04:59:05;;;;;;;21.08;13.98;;;128.40;2252.80;;;;;;5052259;28;20031;-65
2022/11/13 05:01:31;;;;;;;19.77;14.13;;;128.50;2252.80;;;;;;5069678;28;20044;-64
2022/11/13 05:03:56;;;;;;;57.85;42.92;;;128.40;2252.80;;;;;;5069485;28;20021;-66
2022/11/13 05:06:22;;;;;;;40.33;27.52;;;128.50;2252.80;;;;;;5069763;28;20360;-65
2022/11/13 05:08:48;;;;;;;24.05;16.10;;;128.40;2252.80;;;;;;5069543;28;20071;-65
2022/11/13 05:11:14;;;;;;;23.58;14.93;;;128.30;2252.80;;;;;;5069347;28;20166;-66
2022/11/13 05:13:39;;;;;;;26.25;14.43;;;128.30;2252.80;;;;;;5069468;28;20032;-65
2022/11/13 05:16:11;;;;;;;21.08;14.77;;;128.30;2252.80;;;;;;5069136;28;20040;-65
2022/11/13 05:18:38;;;;;;;21.27;13.50;;;128.30;2252.80;;;;;;5068503;28;20479;-65
2022/11/13 05:21:04;;;;;;;18.23;13.05;;;128.30;2252.80;;;;;;5095379;27;20030;-66
2022/11/13 05:23:31;;;;;;;22.65;13.63;;;128.30;2252.80;;;;;;5153358;27;20111;-67
2022/11/13 05:26:15;;;;;;;18.98;12.32;;;128.20;2252.80;;;;;;5153255;27;20025;-69
2022/11/13 05:28:41;;;;;;;23.20;15.02;;;128.10;2252.80;;;;;;5153112;27;20022;-64
2022/11/13 05:31:09;;;;;;;19.60;14.55;;;128.20;2252.80;;;;;;5152888;27;20465;-66
2022/11/13 05:33:36;;;;;;;22.60;13.95;;;128.10;2252.80;;;;;;5152846;27;20019;-66
2022/11/13 05:36:05;;;;;;;22.00;13.90;;;128.10;2252.80;;;;;;5153013;27;20042;-65
2022/11/13 05:38:31;;;;;;;27.95;16.58;;;128.30;2252.80;;;;;;5152857;27;20034;-65
2022/11/13 05:41:02;;;;;;;20.52;12.88;;;128.40;2252.80;;;;;;5152791;27;20026;-65
2022/11/13 05:43:28;;;;;;;21.05;12.77;;;128.40;2252.80;;;;;;5152697;27;20058;-66
2022/11/13 05:46:05;;;;;;;25.10;15.52;;;128.40;2252.80;;;;;;5152796;27;20047;-65
2022/11/13 05:48:31;;;;;;;26.23;16.40;;;128.00;2252.80;;;;;;5153034;27;20019;-65
2022/11/13 05:51:11;;;;;;;26.52;16.33;;;128.20;2252.80;;;;;;5152603;27;20456;-66
2022/11/13 05:53:37;;;;;;;28.02;16.00;;;128.30;2252.80;;;;;;5152415;27;20113;-66
2022/11/13 05:56:09;;;;;;;30.50;18.48;;;128.40;2252.80;;;;;;5152505;27;20023;-67
2022/11/13 05:58:35;;;;;;;28.02;18.98;;;128.50;2252.80;;;;;;5152216;27;20533;-65
2022/11/13 06:01:06;;;;;;;25.83;18.90;;;128.70;2252.80;;;;;;5152517;27;20026;-65
2022/11/13 06:03:32;;;;;;;23.77;17.73;;;128.60;2252.80;;;;;;5152636;27;20610;-67
2022/11/13 06:05:58;;;;;;;26.58;17.95;;;128.70;2252.80;;;;;;5148553;27;20094;-65
2022/11/13 06:08:24;;;;;;;29.08;22.92;;;128.80;2252.80;;;;;;5152290;27;20034;-65
2022/11/13 06:10:50;;;;;;;57.70;30.90;;;128.90;2252.80;;;;;;5151629;27;20113;-65
2022/11/13 06:13:16;;;;;;;75.55;45.38;;;128.80;2252.80;;;;;;5152229;27;20083;-65
2022/11/13 06:15:41;;;;;;;99.57;60.70;;;128.70;2252.80;;;;;;5152486;27;20423;-65
2022/11/13 06:18:07;;;;;;;239.13;136.73;;;128.70;2252.80;;;;;;5151985;27;20071;-65
2022/11/13 06:20:34;;;;;;;75.50;45.78;;;128.90;2252.80;;;;;;5142071;27;20031;-66
2022/11/13 06:23:00;;;;;;;44.28;29.38;;;128.90;2252.80;;;;;;5141209;27;20404;-64
2022/11/13 06:25:26;;;;;;;40.25;25.60;;;128.90;2252.80;;;;;;5140174;27;20053;-66
2022/11/13 06:27:52;;;;;;;36.65;25.20;;;128.90;2252.80;;;;;;5142415;27;20068;-63
2022/11/13 06:30:18;;;;;;;26.75;19.70;;;153.70;2252.80;;;;;;5146814;27;20068;-66
2022/11/13 06:32:44;;;;;;;24.05;15.52;;;153.70;2252.80;;;;;;5151851;27;20027;-65
2022/11/13 06:35:10;;;;;;;26.65;18.13;;;153.70;2252.80;;;;;;5152027;27;20026;-65
2022/11/13 06:37:35;;;;;;;39.75;27.05;;;153.80;2252.80;;;;;;5151678;27;20049;-65
2022/11/13 06:40:01;;;;;;;26.90;19.08;;;153.80;2252.80;;;;;;5151825;27;20042;-64
2022/11/13 06:42:27;;;;;;;119.93;91.20;;;153.90;2252.80;;;;;;5147283;27;20189;-63
2022/11/13 06:44:52;;;;;;;103.32;89.85;;;153.90;2252.80;;;;;;5149317;27;20022;-67
2022/11/13 06:47:18;;;;;;;85.05;71.70;;;154.10;2252.80;;;;;;5151733;27;20027;-65
2022/11/13 06:49:44;;;;;;;63.67;52.90;;;154.30;2252.80;;;;;;5151641;27;20146;-65
2022/11/13 06:52:09;;;;;;;91.38;69.68;;;179.30;2252.80;;;;;;5142574;27;20035;-65
2022/11/13 06:54:35;;;;;;;73.32;56.13;;;179.60;2252.80;;;;;;5139509;27;20472;-66
2022/11/13 06:57:01;;;;;;;56.65;44.42;;;180.00;2252.80;;;;;;5141161;27;20024;-65
2022/11/13 06:59:26;;;;;;;54.30;47.90;;;205.00;2252.80;;;;;;5139663;27;20031;-64
2022/11/13 07:01:52;;;;;;;26.67;18.45;;;205.00;2252.80;;;;;;5131155;28;20042;-64
2022/11/13 07:04:18;;;;;;;38.60;33.30;;;205.10;2252.80;;;;;;5130788;28;20022;-65
2022/11/13 07:06:44;;;;;;;33.90;22.05;;;205.00;2252.80;;;;;;5130657;28;20023;-65
2022/11/13 07:09:09;;;;;;;92.85;62.22;;;205.10;2252.80;;;;;;5130864;28;20031;-64
2022/11/13 07:11:35;;;;;;;72.15;46.75;;;180.10;2252.80;;;;;;5130639;28;20031;-63
2022/11/13 07:14:01;;;;;;;72.72;50.67;;;180.00;2252.80;;;;;;5130901;28;20080;-64
2022/11/13 07:16:26;;;;;;;58.08;40.83;;;180.10;2252.80;;;;;;5130687;28;20028;-65
2022/11/13 07:18:53;;;;;;;59.70;42.50;;;204.80;2252.80;;;;;;5131117;28;20106;-66
2022/11/13 07:21:20;;;;;;;77.47;50.53;;;204.80;2252.80;;;;;;5130587;28;20096;-66
2022/11/13 07:23:48;;;;;;;77.50;50.05;;;180.10;2252.80;;;;;;5133911;27;20054;-65
2022/11/13 07:26:13;;;;;;;66.70;48.45;;;180.10;2252.80;;;;;;5134665;27;20063;-66
2022/11/13 07:28:39;;;;;;;67.88;48.88;;;180.10;2252.80;;;;;;5134629;27;20050;-66
2022/11/13 07:31:06;;;;;;;78.05;53.30;;;180.10;2252.80;;;;;;5134566;27;20043;-64
2022/11/13 07:33:32;;;;;;;70.03;52.75;;;205.30;2252.80;;;;;;5134687;27;20033;-65
2022/11/13 07:35:58;;;;;;;79.45;58.80;;;231.00;2252.80;;;;;;5134719;27;20019;-67
2022/11/13 07:38:23;;;;;;;141.52;110.97;;;282.20;2278.40;;;;;;5134338;27;20033;-67
2022/11/13 07:40:50;;;;;;;75.32;55.55;;;307.80;2304.00;;;;;;5134472;27;20057;-66
2022/11/13 07:43:16;;;;;;;69.80;53.53;;;307.60;2304.00;;;;;;5138314;27;20377;-65
2022/11/13 07:45:42;;;;;;;95.05;77.00;;;307.70;2304.00;;;;;;5155406;27;20046;-66
2022/11/13 07:48:09;;;;;;;63.00;51.47;;;333.10;2329.60;;;;;;5155455;27;20023;-65
2022/11/13 07:50:36;;;;;;;61.03;51.33;;;384.00;2329.60;;;;;;5155137;27;20109;-66
2022/11/13 07:53:04;;;;;;;59.60;49.40;;;358.80;2329.60;;;;;;5155136;27;20437;-66
2022/11/13 07:55:31;;;;;;;65.93;57.58;;;358.70;2329.60;;;;;;5155011;27;20417;-68
2022/11/13 07:57:58;;;;;;;81.13;69.93;;;358.60;2329.60;;;;;;5154968;27;20046;-66
2022/11/13 08:00:25;;;;;;;89.88;75.07;;;359.30;2278.40;;;;;;5154630;27;20018;-66
2022/11/13 08:02:51;;;;;;;77.95;68.40;;;384.90;2201.60;;;;;;5135920;27;20157;-66
2022/11/13 08:05:17;;;;;;;76.97;68.55;;;410.20;2073.60;;;;;;5154850;27;20042;-65
2022/11/13 08:07:47;;;;;;;78.05;69.70;;;436.00;1996.80;;;;;;5154724;27;20494;-67
2022/11/13 08:10:12;;;;;;;70.72;63.03;;;461.00;1920.00;;;;;;5154373;27;20046;-66
2022/11/13 08:12:38;;;;;;;67.05;59.55;;;486.40;1868.80;;;;;;5154601;27;20062;-67
2022/11/13 08:15:04;;;;;;;62.78;56.17;;;486.90;1792.00;;;;;;5154300;27;20119;-68
2022/11/13 08:17:30;;;;;;;62.17;55.65;;;460.80;1920.00;;;;;;5154665;27;20022;-66
2022/11/13 08:19:56;;;;;;;61.08;54.28;;;435.80;1920.00;;;;;;5154601;27;20083;-59
2022/11/13 08:22:21;;;;;;;63.63;56.67;;;460.80;1945.60;;;;;;5154560;27;20514;-59
2022/11/13 08:24:47;;;;;;;68.25;60.95;;;460.90;1894.40;;;;;;5154431;27;20540;-58
2022/11/13 08:27:13;;;;;;;65.90;59.00;;;486.80;1792.00;;;;;;5154166;27;20410;-59
2022/11/13 08:29:38;;;;;;;51.15;45.65;;;461.40;1868.80;;;;;;5154507;27;20034;-59
2022/11/13 08:32:05;;;;;;;49.33;43.85;;;486.50;1817.60;;;;;;5154307;27;20026;-61
2022/11/13 08:34:30;;;;;;;57.78;51.72;;;486.50;1792.00;;;;;;5153066;27;20019;-62
2022/11/13 08:36:56;;;;;;;54.95;49.30;;;461.60;1817.60;;;;;;5154161;27;20074;-61
2022/11/13 08:39:22;;;;;;;50.20;44.55;;;512.00;1766.40;;;;;;5154127;27;20812;-61
2022/11/13 08:41:48;;;;;;;51.90;46.63;;;538.30;1664.00;;;;;;5153805;27;20054;-59
2022/11/13 08:44:14;;;;;;;55.13;49.03;;;564.00;1612.80;;;;;;5153916;27;20476;-64
2022/11/13 08:46:41;;;;;;;52.25;46.67;;;564.10;1587.20;;;;;;5151829;27;20049;-61
2022/11/13 08:49:07;;;;;;;61.15;54.53;;;589.00;1561.60;;;;;;5135954;27;20023;-61
2022/11/13 08:51:33;;;;;;;55.80;49.83;;;589.60;1484.80;;;;;;5143768;27;20019;-62
2022/11/13 08:53:59;;;;;;;52.40;46.97;;;589.00;1510.40;;;;;;5135976;27;20453;-63
2022/11/13 08:56:24;;;;;;;62.08;55.58;;;563.80;1561.60;;;;;;5133077;27;20068;-62
2022/11/13 08:58:50;;;;;;;101.88;91.75;;;588.90;1510.40;;;;;;5133056;27;20023;-62
2022/11/13 09:01:16;;;;;;;60.10;52.83;;;564.00;1536.00;;;;;;5132919;27;20055;-63
2022/11/13 09:03:41;;;;;;;62.42;56.38;;;563.60;1561.60;;;;;;5133054;27;20034;-63
2022/11/13 09:06:08;;;;;;;59.38;50.92;;;512.70;1638.40;;;;;;5132691;27;20024;-62
2022/11/13 09:08:33;;;;;;;61.53;55.22;;;538.50;1612.80;;;;;;5132634;27;20031;-61
2022/11/13 09:11:04;;;;;;;79.88;72.03;;;538.40;1612.80;;;;;;5132722;27;20404;-60
2022/11/13 09:13:33;;;;;;;57.05;50.75;;;564.10;1561.60;;;;;;5132779;27;20031;-61
2022/11/13 09:16:00;;;;;;;53.40;46.53;;;538.40;1587.20;;;;;;5132931;27;20120;-61
2022/11/13 09:18:27;;;;;;;41.85;37.70;;;538.20;1638.40;;;;;;5132645;27;20050;-61
2022/11/13 09:20:54;;;;;;;53.35;47.92;;;512.30;1664.00;;;;;;5132558;27;20019;-62
2022/11/13 09:23:20;;;;;;;42.35;38.00;;;461.50;1817.60;;;;;;5133210;27;20495;-62
2022/11/13 09:25:46;;;;;;;49.78;44.50;;;435.80;1868.80;;;;;;5132584;27;20156;-62
2022/11/13 09:28:12;;;;;;;51.78;46.22;;;461.20;1868.80;;;;;;5132500;27;20114;-62
2022/11/13 09:30:39;;;;;;;36.55;32.90;;;486.60;1792.00;;;;;;5132594;27;20102;-62
2022/11/13 09:33:05;;;;;;;44.47;40.08;;;460.90;1868.80;;;;;;5132265;27;20034;-62
2022/11/13 09:35:34;;;;;;;36.38;32.67;;;486.60;1792.00;;;;;;5132467;27;20367;-61
2022/11/13 09:38:09;;;;;;;38.60;34.85;;;487.10;1766.40;;;;;;5132232;27;20023;-64
2022/11/13 09:40:57;;;;;;;36.97;32.80;;;487.30;1740.80;;;;;;5132532;27;20031;-62
2022/11/13 09:43:32;;;;;;;34.10;30.40;;;487.10;1766.40;;;;;;5084250;28;20052;-61
2022/11/13 09:46:02;;;;;;;35.67;32.00;;;487.10;1715.20;;;;;;5090997;28;20055;-62
2022/11/13 09:48:37;;;;;;;36.08;32.28;;;487.10;1740.80;;;;;;5091238;28;20470;-63
2022/11/13 09:51:11;;;;;;;39.60;34.33;;;512.70;1689.60;;;;;;5091008;28;20043;-61
2022/11/13 09:53:39;;;;;;;41.97;37.67;;;512.00;1740.80;;;;;;5090994;28;20103;-62
2022/11/13 09:56:17;;;;;;;38.75;34.30;;;487.20;1766.40;;;;;;5091142;28;20032;-60
2022/11/13 09:58:59;;;;;;;35.90;31.85;;;487.00;1766.40;;;;;;5099765;28;20136;-60
2022/11/13 10:01:39;;;;;;;32.20;28.35;;;486.50;1817.60;;;;;;5110787;28;20113;-61
2022/11/13 10:04:10;;;;;;;33.60;27.85;;;436.10;1894.40;;;;;;5111104;28;20016;-61
2022/11/13 10:07:04;;;;;;;28.67;23.52;;;435.80;1945.60;;;;;;5111169;28;20046;-61
2022/11/13 10:09:44;;;;;;;25.92;22.45;;;410.00;2048.00;;;;;;5110947;28;20028;-60
2022/11/13 10:12:12;;;;;;;30.05;22.88;;;409.80;2099.20;;;;;;5111148;28;20508;-62
2022/11/13 10:14:45;;;;;;;25.38;19.42;;;384.80;2099.20;;;;;;5111193;28;20114;-61
2022/11/13 10:17:47;;;;;;;25.48;20.35;;;384.40;2176.00;;;;;;5111288;28;20042;-61
2022/11/13 10:20:36;;;;;;;28.67;21.65;;;384.30;2227.20;;;;;;5108737;28;20054;-61
2022/11/13 10:23:13;;;;;;;26.65;21.58;;;359.20;2329.60;;;;;;5089168;28;20541;-63
2022/11/13 10:25:41;;;;;;;26.58;21.55;;;384.10;2329.60;;;;;;5107119;28;20030;-61
2022/11/13 10:28:19;;;;;;;30.60;24.90;;;384.40;2329.60;;;;;;5106627;28;20034;-61
2022/11/13 10:30:46;;;;;;;29.67;19.00;;;384.60;2329.60;;;;;;5106684;28;20040;-62
2022/11/13 10:33:19;;;;;;;29.75;22.48;;;384.70;2329.60;;;;;;5106867;28;20386;-61
2022/11/13 10:35:45;;;;;;;;;;;384.90;2329.60;;;;;;5106492;28;20040;-65
2022/11/13 10:38:37;;;;;;;29.05;22.45;;;409.90;2329.60;;;;;;5106814;28;20404;-63
2022/11/13 10:41:18;;;;;;;25.70;19.80;;;410.00;2329.60;;;;;;5106504;28;20210;-68
2022/11/13 10:44:29;;;;;;;24.98;19.42;;;409.90;2355.20;;;;;;5106416;28;20777;-60
2022/11/13 10:47:14;;;;;;;26.65;19.27;;;410.00;2329.60;;;;;;5045522;28;20025;-61
2022/11/13 10:49:40;;;;;;;25.88;19.67;;;409.90;2355.20;;;;;;5045553;28;20033;-60
2022/11/13 10:52:25;;;;;;;25.80;21.73;;;409.90;2355.20;;;;;;5045713;28;20130;-61
2022/11/13 10:55:04;;;;;;;53.70;38.58;;;410.00;2355.20;;;;;;5045873;28;20515;-61
2022/11/13 10:57:33;;;;;;;29.27;19.75;;;409.70;2355.20;;;;;;5045460;28;20514;-59
2022/11/13 10:59:59;;;;;;;29.80;21.33;;;409.90;2355.20;;;;;;5045908;28;20056;-61
2022/11/13 11:02:26;;;;;;;41.22;28.33;;;409.70;2355.20;;;;;;5045259;28;20406;-61
2022/11/13 11:05:14;;;;;;;29.55;19.92;;;409.70;2355.20;;;;;;5045824;28;20017;-61
2022/11/13 11:07:40;;;;;;;26.60;20.25;;;409.70;2355.20;;;;;;5045810;28;20030;-63
2022/11/13 11:10:34;;;;;;;26.85;20.15;;;409.80;2355.20;;;;;;5045509;28;20075;-61
2022/11/13 11:13:22;;;;;;;24.13;18.58;;;410.00;2355.20;;;;;;5045717;28;20041;-61
2022/11/13 11:15:52;;;;;;;26.17;19.88;;;410.00;2355.20;;;;;;5045128;28;20095;-61
2022/11/13 11:18:23;;;;;;;33.35;21.08;;;410.00;2329.60;;;;;;5045804;28;20033;-61
2022/11/13 11:20:56;;;;;;;23.83;13.95;;;410.00;2304.00;;;;;;5079669;28;20435;-61
2022/11/13 11:23:49;;;;;;;20.60;14.18;;;409.90;2278.40;;;;;;5108824;28;20031;-61
2022/11/13 11:26:21;;;;;;;22.67;15.63;;;409.80;2252.80;;;;;;5108524;28;20080;-60
2022/11/13 11:28:52;;;;;;;20.25;15.20;;;409.70;2252.80;;;;;;5108243;28;20027;-61
2022/11/13 11:31:34;;;;;;;19.75;15.73;;;409.90;2227.20;;;;;;5108781;28;20020;-61
2022/11/13 11:34:03;;;;;;;19.50;14.85;;;409.90;2227.20;;;;;;5108664;28;20165;-60
2022/11/13 11:36:40;;;;;;;20.70;14.65;;;409.80;2252.80;;;;;;5108659;28;20059;-60
2022/11/13 11:39:11;;;;;;;18.58;14.23;;;409.90;2227.20;;;;;;5108384;28;20078;-59
2022/11/13 11:41:55;;;;;;;24.02;17.85;;;410.00;2201.60;;;;;;5112866;27;20074;-60
2022/11/13 11:44:28;;;;;;;15.10;12.43;;;410.00;2227.20;;;;;;5149648;27;20065;-61
2022/11/13 11:46:54;;;;;;;39.65;28.75;;;410.00;2201.60;;;;;;5149364;27;20022;-61
2022/11/13 11:49:24;;;;;;;33.25;24.30;;;410.00;2227.20;;;;;;5149857;27;20034;-62
2022/11/13 11:52:10;;;;;;;21.70;15.38;;;410.20;2227.20;;;;;;5149619;27;20490;-60
2022/11/13 11:54:41;;;;;;;19.95;14.80;;;410.00;2227.20;;;;;;5148565;27;20038;-61
2022/11/13 11:57:38;;;;;;;25.25;18.77;;;410.00;2227.20;;;;;;5149309;27;20058;-60
2022/11/13 12:00:18;;;;;;;22.65;17.20;;;410.00;2252.80;;;;;;5149457;27;20101;-61
2022/11/13 12:03:16;;;;;;;19.35;15.88;;;409.80;2227.20;;;;;;5149284;27;20031;-61
2022/11/13 12:05:53;;;;;;;28.95;18.70;;;409.90;2227.20;;;;;;5149468;27;20023;-60
2022/11/13 12:08:47;;;;;;;30.65;20.35;;;409.80;2227.20;;;;;;5149164;27;20022;-59
2022/11/13 12:11:20;;;;;;;33.67;22.23;;;409.80;2252.80;;;;;;5152885;27;20563;-60